sensor_id;sensor_type;location;lat;lon;timestamp;temperature;humidity
6752;DHT22;3413;47.680;9.166;2023-05-02T00:00:16;14.90;94.50
6752;DHT22;3413;47.680;9.166;2023-05-02T00:05:18;14.90;94.50
6752;DHT22;3413;47.680;9.166;2023-05-02T00:10:20;14.90;94.50
6752;DHT22;3413;47.680;9.166;2023-05-02T00:15:22;15.00;94.50
6752;DHT22;3413;47.680;9.166;2023-05-02T00:20:24;15.00;94.50
6752;DHT22;3413;47.680;9.166;2023-05-02T00:25:26;15.00;94.50
6752;DHT22;3413;47.680;9.166;2023-05-02T00:30:28;14.90;94.50
6752;DHT22;3413;47.680;9.166;2023-05-02T00:35:32;14.80;94.60
6752;DHT22;3413;47.680;9.166;2023-05-02T00:40:43;14.90;94.60
6752;DHT22;3413;47.680;9.166;2023-05-02T00:45:47;14.90;94.60
6752;DHT22;3413;47.680;9.166;2023-05-02T00:50:49;14.90;94.60
6752;DHT22;3413;47.680;9.166;2023-05-02T00:55:51;14.80;94.60
6752;DHT22;3413;47.680;9.166;2023-05-02T01:11:52;14.80;94.60
6752;DHT22;3413;47.680;9.166;2023-05-02T01:16:58;14.80;94.60
6752;DHT22;3413;47.680;9.166;2023-05-02T01:22:06;14.80;94.60
6752;DHT22;3413;47.680;9.166;2023-05-02T01:32:36;14.60;94.50
6752;DHT22;3413;47.680;9.166;2023-05-02T01:37:42;14.60;94.50
6752;DHT22;3413;47.680;9.166;2023-05-02T01:42:50;14.50;94.50
6752;DHT22;3413;47.680;9.166;2023-05-02T01:47:53;14.50;94.50
6752;DHT22;3413;47.680;9.166;2023-05-02T01:52:57;14.40;94.40
6752;DHT22;3413;47.680;9.166;2023-05-02T01:58:00;14.40;94.50
6752;DHT22;3413;47.680;9.166;2023-05-02T02:03:05;14.40;94.50
6752;DHT22;3413;47.680;9.166;2023-05-02T02:08:08;14.40;94.50
6752;DHT22;3413;47.680;9.166;2023-05-02T02:13:43;14.40;94.40
6752;DHT22;3413;47.680;9.166;2023-05-02T02:18:46;14.50;94.50
6752;DHT22;3413;47.680;9.166;2023-05-02T02:23:50;14.40;94.50
6752;DHT22;3413;47.680;9.166;2023-05-02T02:28:52;14.40;94.50
6752;DHT22;3413;47.680;9.166;2023-05-02T02:33:54;14.40;94.50
6752;DHT22;3413;47.680;9.166;2023-05-02T02:44:48;14.40;94.60
6752;DHT22;3413;47.680;9.166;2023-05-02T02:55:19;14.50;94.60
6752;DHT22;3413;47.680;9.166;2023-05-02T03:00:26;14.50;94.60
6752;DHT22;3413;47.680;9.166;2023-05-02T03:05:30;14.50;94.70
6752;DHT22;3413;47.680;9.166;2023-05-02T03:10:33;14.50;94.70
6752;DHT22;3413;47.680;9.166;2023-05-02T03:20:38;14.60;94.70
6752;DHT22;3413;47.680;9.166;2023-05-02T03:25:40;14.60;94.80
6752;DHT22;3413;47.680;9.166;2023-05-02T03:30:45;14.60;94.70
6752;DHT22;3413;47.680;9.166;2023-05-02T03:35:48;14.60;94.80
6752;DHT22;3413;47.680;9.166;2023-05-02T03:40:50;14.60;94.80
6752;DHT22;3413;47.680;9.166;2023-05-02T03:45:52;14.60;94.80
6752;DHT22;3413;47.680;9.166;2023-05-02T03:50:55;14.70;95.20
6752;DHT22;3413;47.680;9.166;2023-05-02T03:55:57;14.70;94.90
6752;DHT22;3413;47.680;9.166;2023-05-02T04:01:14;14.70;94.90
6752;DHT22;3413;47.680;9.166;2023-05-02T04:06:19;14.70;94.90
6752;DHT22;3413;47.680;9.166;2023-05-02T04:11:28;14.80;95.20
6752;DHT22;3413;47.680;9.166;2023-05-02T04:16:30;14.70;94.90
6752;DHT22;3413;47.680;9.166;2023-05-02T04:21:35;14.70;94.90
6752;DHT22;3413;47.680;9.166;2023-05-02T04:26:38;14.70;94.90
6752;DHT22;3413;47.680;9.166;2023-05-02T04:31:44;14.60;94.90
6752;DHT22;3413;47.680;9.166;2023-05-02T04:36:47;14.60;95.00
6752;DHT22;3413;47.680;9.166;2023-05-02T04:41:54;14.60;95.00
6752;DHT22;3413;47.680;9.166;2023-05-02T04:46:58;14.60;95.00
6752;DHT22;3413;47.680;9.166;2023-05-02T04:52:00;14.60;95.00
6752;DHT22;3413;47.680;9.166;2023-05-02T04:57:02;14.60;95.00
6752;DHT22;3413;47.680;9.166;2023-05-02T05:02:09;14.70;95.10
6752;DHT22;3413;47.680;9.166;2023-05-02T05:07:14;14.60;95.10
6752;DHT22;3413;47.680;9.166;2023-05-02T05:12:25;14.70;95.20
6752;DHT22;3413;47.680;9.166;2023-05-02T05:17:27;14.70;95.20
6752;DHT22;3413;47.680;9.166;2023-05-02T05:22:29;14.60;95.40
6752;DHT22;3413;47.680;9.166;2023-05-02T05:27:36;14.60;95.20
6752;DHT22;3413;47.680;9.166;2023-05-02T05:32:39;14.60;95.20
6752;DHT22;3413;47.680;9.166;2023-05-02T05:37:41;14.60;95.20
6752;DHT22;3413;47.680;9.166;2023-05-02T05:42:47;14.70;95.20
6752;DHT22;3413;47.680;9.166;2023-05-02T05:47:56;14.70;95.20
6752;DHT22;3413;47.680;9.166;2023-05-02T05:53:01;14.70;95.30
6752;DHT22;3413;47.680;9.166;2023-05-02T05:58:04;14.70;95.30
6752;DHT22;3413;47.680;9.166;2023-05-02T06:03:08;14.70;95.40
6752;DHT22;3413;47.680;9.166;2023-05-02T06:08:11;14.80;95.40
6752;DHT22;3413;47.680;9.166;2023-05-02T06:13:13;14.90;95.50
6752;DHT22;3413;47.680;9.166;2023-05-02T06:18:17;14.90;95.40
6752;DHT22;3413;47.680;9.166;2023-05-02T06:23:19;14.90;95.40
6752;DHT22;3413;47.680;9.166;2023-05-02T06:28:21;15.00;95.40
6752;DHT22;3413;47.680;9.166;2023-05-02T06:33:23;15.00;95.40
6752;DHT22;3413;47.680;9.166;2023-05-02T06:38:25;15.00;95.40
6752;DHT22;3413;47.680;9.166;2023-05-02T06:43:27;15.00;95.40
6752;DHT22;3413;47.680;9.166;2023-05-02T06:48:29;15.10;95.50
6752;DHT22;3413;47.680;9.166;2023-05-02T06:53:31;15.10;95.50
6752;DHT22;3413;47.680;9.166;2023-05-02T06:58:33;15.10;95.80
6752;DHT22;3413;47.680;9.166;2023-05-02T07:03:35;15.00;95.60
6752;DHT22;3413;47.680;9.166;2023-05-02T07:08:37;15.00;95.60
6752;DHT22;3413;47.680;9.166;2023-05-02T07:13:39;15.00;95.70
6752;DHT22;3413;47.680;9.166;2023-05-02T07:18:41;15.10;95.70
6752;DHT22;3413;47.680;9.166;2023-05-02T07:23:43;15.20;95.80
6752;DHT22;3413;47.680;9.166;2023-05-02T07:28:45;15.20;95.70
6752;DHT22;3413;47.680;9.166;2023-05-02T07:33:47;15.30;95.80
6752;DHT22;3413;47.680;9.166;2023-05-02T07:38:49;15.40;95.80
6752;DHT22;3413;47.680;9.166;2023-05-02T07:43:51;15.40;95.90
6752;DHT22;3413;47.680;9.166;2023-05-02T07:48:53;15.40;95.90
6752;DHT22;3413;47.680;9.166;2023-05-02T07:53:55;15.50;95.90
6752;DHT22;3413;47.680;9.166;2023-05-02T07:58:59;15.70;96.00
6752;DHT22;3413;47.680;9.166;2023-05-02T08:04:01;15.70;96.10
6752;DHT22;3413;47.680;9.166;2023-05-02T08:09:03;15.70;96.20
6752;DHT22;3413;47.680;9.166;2023-05-02T08:14:05;15.90;96.40
6752;DHT22;3413;47.680;9.166;2023-05-02T08:19:07;16.00;96.50
6752;DHT22;3413;47.680;9.166;2023-05-02T08:24:09;16.10;96.50
6752;DHT22;3413;47.680;9.166;2023-05-02T08:29:11;16.10;96.50
6752;DHT22;3413;47.680;9.166;2023-05-02T08:34:13;16.20;96.60
6752;DHT22;3413;47.680;9.166;2023-05-02T08:39:15;16.30;96.60
6752;DHT22;3413;47.680;9.166;2023-05-02T08:44:17;16.30;96.60
6752;DHT22;3413;47.680;9.166;2023-05-02T08:49:19;16.40;96.70
6752;DHT22;3413;47.680;9.166;2023-05-02T08:54:23;16.60;96.80
6752;DHT22;3413;47.680;9.166;2023-05-02T08:59:26;16.60;96.80
6752;DHT22;3413;47.680;9.166;2023-05-02T09:04:30;16.70;96.90
6752;DHT22;3413;47.680;9.166;2023-05-02T09:09:35;16.80;96.90
6752;DHT22;3413;47.680;9.166;2023-05-02T09:14:38;16.70;96.80
6752;DHT22;3413;47.680;9.166;2023-05-02T09:19:40;16.80;97.00
6752;DHT22;3413;47.680;9.166;2023-05-02T09:24:42;16.90;97.00
6752;DHT22;3413;47.680;9.166;2023-05-02T09:29:45;17.00;97.10
6752;DHT22;3413;47.680;9.166;2023-05-02T09:35:06;17.00;97.10
6752;DHT22;3413;47.680;9.166;2023-05-02T09:40:09;17.30;97.10
6752;DHT22;3413;47.680;9.166;2023-05-02T09:45:24;17.30;97.10
6752;DHT22;3413;47.680;9.166;2023-05-02T09:50:36;17.30;97.20
6752;DHT22;3413;47.680;9.166;2023-05-02T09:55:39;17.40;97.30
6752;DHT22;3413;47.680;9.166;2023-05-02T10:00:44;17.50;97.40
6752;DHT22;3413;47.680;9.166;2023-05-02T10:05:46;17.60;97.40
6752;DHT22;3413;47.680;9.166;2023-05-02T10:10:56;17.80;97.50
6752;DHT22;3413;47.680;9.166;2023-05-02T10:16:06;17.90;97.40
6752;DHT22;3413;47.680;9.166;2023-05-02T10:21:10;18.00;97.40
6752;DHT22;3413;47.680;9.166;2023-05-02T10:26:14;18.10;97.50
6752;DHT22;3413;47.680;9.166;2023-05-02T10:31:17;18.20;97.50
6752;DHT22;3413;47.680;9.166;2023-05-02T10:36:21;18.30;97.60
6752;DHT22;3413;47.680;9.166;2023-05-02T10:41:26;18.50;97.50
6752;DHT22;3413;47.680;9.166;2023-05-02T10:46:34;18.50;97.40
6752;DHT22;3413;47.680;9.166;2023-05-02T10:51:39;18.40;97.20
6752;DHT22;3413;47.680;9.166;2023-05-02T10:57:03;18.50;97.50
6752;DHT22;3413;47.680;9.166;2023-05-02T11:07:30;19.00;97.80
6752;DHT22;3413;47.680;9.166;2023-05-02T11:12:54;19.20;97.80
6752;DHT22;3413;47.680;9.166;2023-05-02T11:18:07;19.10;97.30
6752;DHT22;3413;47.680;9.166;2023-05-02T11:23:21;19.10;97.30
6752;DHT22;3413;47.680;9.166;2023-05-02T11:28:43;19.00;97.20
6752;DHT22;3413;47.680;9.166;2023-05-02T11:33:55;19.00;97.10
6752;DHT22;3413;47.680;9.166;2023-05-02T11:38:58;18.90;97.10
6752;DHT22;3413;47.680;9.166;2023-05-02T11:44:03;19.00;97.10
6752;DHT22;3413;47.680;9.166;2023-05-02T11:49:05;19.10;97.00
6752;DHT22;3413;47.680;9.166;2023-05-02T11:54:18;19.10;97.20
6752;DHT22;3413;47.680;9.166;2023-05-02T11:59:20;19.10;97.00
6752;DHT22;3413;47.680;9.166;2023-05-02T12:04:22;19.20;97.00
6752;DHT22;3413;47.680;9.166;2023-05-02T12:09:26;19.30;97.00
6752;DHT22;3413;47.680;9.166;2023-05-02T12:14:31;19.40;97.00
6752;DHT22;3413;47.680;9.166;2023-05-02T12:19:34;19.30;96.80
6752;DHT22;3413;47.680;9.166;2023-05-02T12:24:38;18.90;96.70
6752;DHT22;3413;47.680;9.166;2023-05-02T12:29:46;18.80;96.70
6752;DHT22;3413;47.680;9.166;2023-05-02T12:34:48;19.00;96.80
6752;DHT22;3413;47.680;9.166;2023-05-02T12:39:50;19.10;96.80
6752;DHT22;3413;47.680;9.166;2023-05-02T12:44:53;19.20;96.90
6752;DHT22;3413;47.680;9.166;2023-05-02T12:49:58;19.10;96.80
6752;DHT22;3413;47.680;9.166;2023-05-02T12:55:20;19.00;96.80
6752;DHT22;3413;47.680;9.166;2023-05-02T13:00:22;19.10;96.70
6752;DHT22;3413;47.680;9.166;2023-05-02T13:05:24;19.20;96.90
6752;DHT22;3413;47.680;9.166;2023-05-02T13:10:27;19.20;97.10
6752;DHT22;3413;47.680;9.166;2023-05-02T13:15:29;19.50;97.20
6752;DHT22;3413;47.680;9.166;2023-05-02T13:20:31;19.70;97.40
6752;DHT22;3413;47.680;9.166;2023-05-02T13:25:32;20.10;97.60
6752;DHT22;3413;47.680;9.166;2023-05-02T13:30:34;20.40;97.50
6752;DHT22;3413;47.680;9.166;2023-05-02T13:35:36;20.50;97.50
6752;DHT22;3413;47.680;9.166;2023-05-02T13:40:38;20.80;97.70
6752;DHT22;3413;47.680;9.166;2023-05-02T13:45:40;21.00;97.80
6752;DHT22;3413;47.680;9.166;2023-05-02T13:50:42;21.20;97.90
6752;DHT22;3413;47.680;9.166;2023-05-02T13:55:44;21.40;97.80
6752;DHT22;3413;47.680;9.166;2023-05-02T14:00:46;21.70;97.80
6752;DHT22;3413;47.680;9.166;2023-05-02T14:05:49;21.70;97.80
6752;DHT22;3413;47.680;9.166;2023-05-02T14:10:51;21.70;97.70
6752;DHT22;3413;47.680;9.166;2023-05-02T14:15:53;21.80;97.70
6752;DHT22;3413;47.680;9.166;2023-05-02T14:20:55;21.70;97.60
6752;DHT22;3413;47.680;9.166;2023-05-02T14:26:00;21.60;97.50
6752;DHT22;3413;47.680;9.166;2023-05-02T14:31:03;21.50;97.40
6752;DHT22;3413;47.680;9.166;2023-05-02T14:36:05;21.50;97.40
6752;DHT22;3413;47.680;9.166;2023-05-02T14:41:07;21.80;97.50
6752;DHT22;3413;47.680;9.166;2023-05-02T14:46:09;21.90;97.40
6752;DHT22;3413;47.680;9.166;2023-05-02T14:51:11;21.90;97.40
6752;DHT22;3413;47.680;9.166;2023-05-02T14:56:13;22.10;97.40
6752;DHT22;3413;47.680;9.166;2023-05-02T15:01:20;22.10;97.40
6752;DHT22;3413;47.680;9.166;2023-05-02T15:06:22;22.00;97.30
6752;DHT22;3413;47.680;9.166;2023-05-02T15:11:24;21.90;97.20
6752;DHT22;3413;47.680;9.166;2023-05-02T15:16:26;21.90;97.10
6752;DHT22;3413;47.680;9.166;2023-05-02T15:21:29;21.70;96.90
6752;DHT22;3413;47.680;9.166;2023-05-02T15:26:31;21.50;96.70
6752;DHT22;3413;47.680;9.166;2023-05-02T15:31:33;21.30;96.70
6752;DHT22;3413;47.680;9.166;2023-05-02T15:36:35;21.40;96.70
6752;DHT22;3413;47.680;9.166;2023-05-02T15:41:38;21.40;96.50
6752;DHT22;3413;47.680;9.166;2023-05-02T15:46:39;21.50;96.50
6752;DHT22;3413;47.680;9.166;2023-05-02T15:51:47;21.50;96.40
6752;DHT22;3413;47.680;9.166;2023-05-02T15:56:49;21.40;96.30
6752;DHT22;3413;47.680;9.166;2023-05-02T16:01:51;21.40;96.10
6752;DHT22;3413;47.680;9.166;2023-05-02T16:06:54;21.30;95.90
6752;DHT22;3413;47.680;9.166;2023-05-02T16:11:56;21.00;95.80
6752;DHT22;3413;47.680;9.166;2023-05-02T16:16:58;21.00;95.80
6752;DHT22;3413;47.680;9.166;2023-05-02T16:22:00;21.00;95.70
6752;DHT22;3413;47.680;9.166;2023-05-02T16:27:03;20.90;95.70
6752;DHT22;3413;47.680;9.166;2023-05-02T16:32:05;20.80;95.70
6752;DHT22;3413;47.680;9.166;2023-05-02T16:37:08;20.80;95.60
6752;DHT22;3413;47.680;9.166;2023-05-02T16:42:11;20.80;95.60
6752;DHT22;3413;47.680;9.166;2023-05-02T16:47:13;20.80;95.50
6752;DHT22;3413;47.680;9.166;2023-05-02T16:52:16;20.70;95.50
6752;DHT22;3413;47.680;9.166;2023-05-02T16:57:19;20.50;95.40
6752;DHT22;3413;47.680;9.166;2023-05-02T17:02:24;20.50;95.30
6752;DHT22;3413;47.680;9.166;2023-05-02T17:07:27;20.20;95.10
6752;DHT22;3413;47.680;9.166;2023-05-02T17:12:29;19.80;95.00
6752;DHT22;3413;47.680;9.166;2023-05-02T17:17:30;19.80;95.00
6752;DHT22;3413;47.680;9.166;2023-05-02T17:22:33;19.80;94.80
6752;DHT22;3413;47.680;9.166;2023-05-02T17:27:36;19.80;94.80
6752;DHT22;3413;47.680;9.166;2023-05-02T17:32:41;19.90;94.80
6752;DHT22;3413;47.680;9.166;2023-05-02T17:37:43;19.80;94.80
6752;DHT22;3413;47.680;9.166;2023-05-02T17:42:45;19.60;94.80
6752;DHT22;3413;47.680;9.166;2023-05-02T17:47:47;19.30;94.80
6752;DHT22;3413;47.680;9.166;2023-05-02T17:52:49;19.10;94.80
6752;DHT22;3413;47.680;9.166;2023-05-02T17:57:52;19.00;94.70
6752;DHT22;3413;47.680;9.166;2023-05-02T18:02:54;18.80;94.60
6752;DHT22;3413;47.680;9.166;2023-05-02T18:07:56;18.70;94.70
6752;DHT22;3413;47.680;9.166;2023-05-02T18:12:59;18.80;94.50
6752;DHT22;3413;47.680;9.166;2023-05-02T18:18:01;18.80;94.40
6752;DHT22;3413;47.680;9.166;2023-05-02T18:23:03;18.80;94.50
6752;DHT22;3413;47.680;9.166;2023-05-02T18:28:06;18.80;94.60
6752;DHT22;3413;47.680;9.166;2023-05-02T18:33:08;18.80;94.60
6752;DHT22;3413;47.680;9.166;2023-05-02T18:38:10;18.50;94.50
6752;DHT22;3413;47.680;9.166;2023-05-02T18:43:13;18.20;94.60
6752;DHT22;3413;47.680;9.166;2023-05-02T18:48:15;17.90;94.50
6752;DHT22;3413;47.680;9.166;2023-05-02T18:53:17;17.50;94.40
6752;DHT22;3413;47.680;9.166;2023-05-02T18:58:22;17.20;94.40
6752;DHT22;3413;47.680;9.166;2023-05-02T19:03:24;17.00;94.40
6752;DHT22;3413;47.680;9.166;2023-05-02T19:08:27;16.90;94.40
6752;DHT22;3413;47.680;9.166;2023-05-02T19:13:29;16.70;94.20
6752;DHT22;3413;47.680;9.166;2023-05-02T19:18:31;16.60;94.20
6752;DHT22;3413;47.680;9.166;2023-05-02T19:23:33;16.40;94.10
6752;DHT22;3413;47.680;9.166;2023-05-02T19:28:36;16.10;94.00
6752;DHT22;3413;47.680;9.166;2023-05-02T19:33:39;16.10;94.00
6752;DHT22;3413;47.680;9.166;2023-05-02T19:38:41;16.20;94.00
6752;DHT22;3413;47.680;9.166;2023-05-02T19:43:43;16.30;94.10
6752;DHT22;3413;47.680;9.166;2023-05-02T19:48:45;16.20;94.10
6752;DHT22;3413;47.680;9.166;2023-05-02T19:53:47;16.10;94.30
6752;DHT22;3413;47.680;9.166;2023-05-02T19:58:49;16.10;94.30
6752;DHT22;3413;47.680;9.166;2023-05-02T20:03:52;16.30;94.40
6752;DHT22;3413;47.680;9.166;2023-05-02T20:08:54;16.40;94.40
6752;DHT22;3413;47.680;9.166;2023-05-02T20:13:56;16.50;94.50
6752;DHT22;3413;47.680;9.166;2023-05-02T20:18:58;16.60;94.50
6752;DHT22;3413;47.680;9.166;2023-05-02T20:24:00;16.60;94.50
6752;DHT22;3413;47.680;9.166;2023-05-02T20:29:02;16.70;94.60
6752;DHT22;3413;47.680;9.166;2023-05-02T20:34:05;16.70;94.90
6752;DHT22;3413;47.680;9.166;2023-05-02T20:39:07;16.70;94.70
6752;DHT22;3413;47.680;9.166;2023-05-02T20:44:12;16.70;94.70
6752;DHT22;3413;47.680;9.166;2023-05-02T20:49:18;16.60;94.60
6752;DHT22;3413;47.680;9.166;2023-05-02T20:54:20;16.50;94.60
6752;DHT22;3413;47.680;9.166;2023-05-02T20:59:22;16.40;94.70
6752;DHT22;3413;47.680;9.166;2023-05-02T21:04:26;16.40;94.70
6752;DHT22;3413;47.680;9.166;2023-05-02T21:09:28;16.30;94.60
6752;DHT22;3413;47.680;9.166;2023-05-02T21:14:32;16.40;94.90
6752;DHT22;3413;47.680;9.166;2023-05-02T21:19:35;16.30;94.50
6752;DHT22;3413;47.680;9.166;2023-05-02T21:24:38;16.30;94.50
6752;DHT22;3413;47.680;9.166;2023-05-02T21:29:40;16.30;94.50
6752;DHT22;3413;47.680;9.166;2023-05-02T21:34:42;16.20;94.50
6752;DHT22;3413;47.680;9.166;2023-05-02T21:39:44;16.20;94.60
6752;DHT22;3413;47.680;9.166;2023-05-02T21:44:46;16.10;94.50
6752;DHT22;3413;47.680;9.166;2023-05-02T21:49:47;16.10;94.50
6752;DHT22;3413;47.680;9.166;2023-05-02T21:54:50;16.00;94.40
6752;DHT22;3413;47.680;9.166;2023-05-02T21:59:53;16.00;94.40
6752;DHT22;3413;47.680;9.166;2023-05-02T22:04:55;16.00;94.40
6752;DHT22;3413;47.680;9.166;2023-05-02T22:09:58;15.90;94.30
6752;DHT22;3413;47.680;9.166;2023-05-02T22:20:31;15.90;94.40
6752;DHT22;3413;47.680;9.166;2023-05-02T22:25:34;15.80;94.30
6752;DHT22;3413;47.680;9.166;2023-05-02T22:30:41;15.70;94.30
6752;DHT22;3413;47.680;9.166;2023-05-02T22:35:46;15.70;94.30
6752;DHT22;3413;47.680;9.166;2023-05-02T22:40:48;15.70;94.20
6752;DHT22;3413;47.680;9.166;2023-05-02T22:45:50;15.60;94.20
6752;DHT22;3413;47.680;9.166;2023-05-02T22:50:52;15.40;94.00
6752;DHT22;3413;47.680;9.166;2023-05-02T22:55:55;15.30;94.10
6752;DHT22;3413;47.680;9.166;2023-05-02T23:00:57;15.20;94.20
6752;DHT22;3413;47.680;9.166;2023-05-02T23:05:59;15.20;94.00
6752;DHT22;3413;47.680;9.166;2023-05-02T23:11:01;15.20;94.00
6752;DHT22;3413;47.680;9.166;2023-05-02T23:16:04;15.10;93.90
6752;DHT22;3413;47.680;9.166;2023-05-02T23:21:13;15.00;94.00
6752;DHT22;3413;47.680;9.166;2023-05-02T23:26:16;15.00;94.00
6752;DHT22;3413;47.680;9.166;2023-05-02T23:31:18;15.00;93.90
6752;DHT22;3413;47.680;9.166;2023-05-02T23:36:21;14.80;93.80
6752;DHT22;3413;47.680;9.166;2023-05-02T23:41:23;14.70;93.80
6752;DHT22;3413;47.680;9.166;2023-05-02T23:46:27;14.60;93.80
6752;DHT22;3413;47.680;9.166;2023-05-02T23:51:30;14.60;93.70
6752;DHT22;3413;47.680;9.166;2023-05-02T23:56:33;14.50;93.60
